createdAt,value
2023-03-16T00:02:11.386Z,98629.22
2023-03-16T00:05:34.295Z,98628.28
2023-03-16T00:08:58.975Z,98621.63
2023-03-16T00:12:22.585Z,98617.50
2023-03-16T00:16:02.495Z,98619.88
2023-03-16T00:19:25.358Z,98624.88
2023-03-16T00:22:53.557Z,98634.69
2023-03-16T00:26:15.327Z,98627.81
2023-03-16T00:29:37.118Z,98625.59
2023-03-16T00:33:00.025Z,98619.31
2023-03-16T00:36:22.626Z,98624.47
2023-03-16T00:39:47.312Z,98627.03
2023-03-16T00:43:09.097Z,98627.66
2023-03-16T00:46:36.974Z,98611.22
2023-03-16T00:50:01.652Z,98609.50
2023-03-16T00:53:23.467Z,98599.88
2023-03-16T00:56:45.676Z,98588.22
2023-03-16T01:00:14.826Z,98594.19
2023-03-16T01:03:37.888Z,98597.00
2023-03-16T01:07:00.247Z,98592.63
2023-03-16T01:10:22.040Z,98594.28
2023-03-16T01:13:54.212Z,98597.50
2023-03-16T01:17:18.195Z,98601.22
2023-03-16T01:20:40.310Z,98596.69
2023-03-16T01:24:07.258Z,98595.94
2023-03-16T01:27:31.106Z,98599.16
2023-03-16T01:31:01.925Z,98594.38
2023-03-16T01:34:24.402Z,98598.06
2023-03-16T01:37:47.368Z,98582.34
2023-03-16T01:41:13.601Z,98579.53
2023-03-16T01:44:56.671Z,98570.13
2023-03-16T01:48:37.079Z,98579.53
2023-03-16T01:52:21.216Z,98567.00
2023-03-16T01:55:45.447Z,98573.84
2023-03-16T01:59:20.663Z,98571.03
2023-03-16T02:02:46.138Z,98563.50
2023-03-16T02:06:23.527Z,98565.09
2023-03-16T02:10:00.753Z,98559.59
2023-03-16T02:13:25.743Z,98558.34
2023-03-16T02:16:48.748Z,98553.75
2023-03-16T02:20:23.137Z,98541.19
2023-03-16T02:23:46.837Z,98537.50
2023-03-16T02:27:39.621Z,98515.53
2023-03-16T02:31:02.959Z,98515.97
2023-03-16T02:34:26.992Z,98512.41
2023-03-16T02:37:49.073Z,98503.50
2023-03-16T02:41:27.471Z,98509.00
2023-03-16T02:44:59.322Z,98503.84
2023-03-16T02:48:51.048Z,98508.63
2023-03-16T02:52:14.631Z,98495.75
2023-03-16T02:55:37.755Z,98501.22
2023-03-16T02:58:59.655Z,98499.06
2023-03-16T03:02:21.910Z,98497.25
2023-03-16T03:05:47.281Z,98490.84
2023-03-16T03:09:11.579Z,98492.00
2023-03-16T03:12:49.175Z,98490.00
2023-03-16T03:16:11.132Z,98490.66
2023-03-16T03:19:34.613Z,98488.53
2023-03-16T03:22:56.755Z,98477.22
2023-03-16T03:26:20.026Z,98479.63
2023-03-16T03:29:44.539Z,98479.25
2023-03-16T03:33:13.542Z,98474.81
2023-03-16T03:36:37.497Z,98478.91
2023-03-16T03:40:04.631Z,98471.13
2023-03-16T03:43:27.592Z,98464.53
2023-03-16T03:46:51.473Z,98474.31
2023-03-16T03:50:14.636Z,98472.41
2023-03-16T03:53:46.530Z,98470.72
2023-03-16T03:57:22.047Z,98461.91
2023-03-16T04:00:46.725Z,98453.44
2023-03-16T04:04:15.110Z,98448.94
2023-03-16T04:07:37.159Z,98444.56
2023-03-16T04:11:02.017Z,98450.38
2023-03-16T04:14:24.070Z,98450.38
2023-03-16T04:17:54.517Z,98443.28
2023-03-16T04:21:18.596Z,98435.28
2023-03-16T04:24:43.188Z,98445.66
2023-03-16T04:28:06.211Z,98443.13
2023-03-16T04:31:30.444Z,98436.38
2023-03-16T04:34:55.856Z,98438.06
2023-03-16T04:38:34.015Z,98431.38
2023-03-16T04:41:56.998Z,98435.75
2023-03-16T04:45:24.462Z,98430.31
2023-03-16T04:48:49.783Z,98429.00
2023-03-16T04:52:12.903Z,98428.16
2023-03-16T04:55:36.852Z,98431.00
2023-03-16T04:59:00.070Z,98420.69
2023-03-16T05:02:26.874Z,98425.44
2023-03-16T05:05:51.567Z,98422.81
2023-03-16T05:09:13.922Z,98412.84
2023-03-16T05:12:35.800Z,98413.69
2023-03-16T05:16:01.608Z,98426.31
2023-03-16T05:19:27.761Z,98432.38
2023-03-16T05:22:51.028Z,98429.00
2023-03-16T05:26:19.547Z,98425.50
2023-03-16T05:29:46.035Z,98417.81
2023-03-16T05:33:09.117Z,98414.28
2023-03-16T05:36:31.836Z,98419.44
2023-03-16T05:40:01.490Z,98424.66
2023-03-16T05:43:23.898Z,98415.09
2023-03-16T05:46:48.629Z,98414.22
2023-03-16T05:50:13.840Z,98399.94
2023-03-16T05:53:37.881Z,98411.41
2023-03-16T05:57:11.146Z,98413.28
2023-03-16T06:00:34.706Z,98418.97
2023-03-16T06:04:07.343Z,98433.25
2023-03-16T06:07:32.970Z,98429.09
2023-03-16T06:10:54.923Z,98442.22
2023-03-16T06:14:17.135Z,98447.75
2023-03-16T06:17:43.136Z,98452.44
2023-03-16T06:21:05.574Z,98440.53
2023-03-16T06:24:29.100Z,98433.81
2023-03-16T06:27:51.196Z,98435.41
2023-03-16T06:31:13.900Z,98436.91
2023-03-16T06:34:39.192Z,98430.75
2023-03-16T06:38:02.142Z,98415.75
2023-03-16T06:41:38.234Z,98421.63
2023-03-16T06:45:00.802Z,98430.09
2023-03-16T06:48:22.874Z,98429.06
2023-03-16T06:51:44.853Z,98429.34
2023-03-16T06:55:08.109Z,98427.16
2023-03-16T06:58:33.949Z,98432.00
2023-03-16T07:01:57.060Z,98428.41
2023-03-16T07:05:19.123Z,98419.34
2023-03-16T07:08:42.554Z,98428.38
2023-03-16T07:12:06.285Z,98435.41
2023-03-16T07:15:32.461Z,98438.59
2023-03-16T07:18:58.712Z,98444.72
2023-03-16T07:22:21.939Z,98434.31
2023-03-16T07:25:44.611Z,98436.34
2023-03-16T07:29:17.213Z,98433.03
2023-03-16T07:32:42.942Z,98440.56
2023-03-16T07:36:09.250Z,98434.34
2023-03-16T07:39:43.631Z,98436.59
2023-03-16T07:43:14.583Z,98424.00
2023-03-16T07:46:44.372Z,98422.56
2023-03-16T07:50:08.781Z,98412.47
2023-03-16T07:53:32.215Z,98413.44
2023-03-16T07:57:19.112Z,98403.94
2023-03-16T08:00:46.509Z,98404.50
2023-03-16T08:04:12.209Z,98407.78
2023-03-16T08:07:44.324Z,98413.69
2023-03-16T08:11:11.306Z,98409.84
2023-03-16T08:14:45.352Z,98412.75
2023-03-16T08:18:12.555Z,98413.63
2023-03-16T08:21:48.735Z,98403.34
2023-03-16T08:25:19.809Z,98400.44
2023-03-16T08:28:52.564Z,98417.31
2023-03-16T08:32:18.540Z,98423.50
2023-03-16T08:35:45.549Z,98407.44
2023-03-16T08:39:08.966Z,98405.59
2023-03-16T08:42:38.791Z,98409.06
2023-03-16T08:46:01.696Z,98414.13
2023-03-16T08:49:34.858Z,98395.72
2023-03-16T08:53:02.325Z,98384.19
2023-03-16T08:56:24.293Z,98388.78
2023-03-16T08:59:46.171Z,98383.59
2023-03-16T09:03:08.034Z,98378.56
2023-03-16T09:06:36.797Z,98375.44
2023-03-16T09:10:05.477Z,98382.91
2023-03-16T09:13:36.457Z,98380.47
2023-03-16T09:16:59.601Z,98387.53
2023-03-16T09:20:30.016Z,98384.84
2023-03-16T09:23:57.017Z,98373.59
2023-03-16T09:27:20.723Z,98369.19
2023-03-16T09:30:54.901Z,98365.69
2023-03-16T09:34:16.767Z,98373.59
2023-03-16T09:37:45.648Z,98369.63
2023-03-16T09:41:49.857Z,98372.38
2023-03-16T09:45:51.449Z,98375.03
2023-03-16T09:49:23.703Z,98363.13
2023-03-16T09:53:16.019Z,98360.81
2023-03-16T09:56:43.198Z,98355.50
2023-03-16T10:00:18.062Z,98356.81
2023-03-16T10:04:35.229Z,98350.19
2023-03-16T10:08:38.589Z,98352.75
2023-03-16T10:12:04.288Z,98340.13
2023-03-16T10:15:32.498Z,98342.47
2023-03-16T10:19:05.245Z,98341.44
2023-03-16T10:22:34.873Z,98350.06
2023-03-16T10:25:57.243Z,98337.66
2023-03-16T10:29:19.055Z,98343.09
2023-03-16T10:32:41.288Z,98332.31
2023-03-16T10:36:06.014Z,98332.09
2023-03-16T10:39:42.694Z,98332.69
2023-03-16T10:43:13.897Z,98321.59
2023-03-16T10:46:48.509Z,98321.44
2023-03-16T10:50:16.604Z,98320.88
2023-03-16T10:53:44.141Z,98321.47
2023-03-16T10:57:37.466Z,98322.28
2023-03-16T11:01:00.253Z,98322.31
2023-03-16T11:04:22.783Z,98321.50
2023-03-16T11:07:59.809Z,98310.84
2023-03-16T11:11:33.855Z,98305.31
2023-03-16T11:15:20.133Z,98297.81
2023-03-16T11:18:56.540Z,98292.25
2023-03-16T11:22:30.131Z,98293.44
2023-03-16T11:25:56.575Z,98287.09
2023-03-16T11:29:34.564Z,98284.47
2023-03-16T11:33:00.434Z,98273.94
2023-03-16T11:36:48.875Z,98269.63
2023-03-16T11:40:29.761Z,98276.44
2023-03-16T11:44:28.505Z,98274.34
2023-03-16T11:48:32.113Z,98264.72
2023-03-16T11:52:17.303Z,98264.91
2023-03-16T11:56:23.248Z,98258.78
2023-03-16T12:00:31.190Z,98251.09
2023-03-16T12:04:20.460Z,98245.16
2023-03-16T12:08:31.281Z,98255.84
2023-03-16T12:12:22.136Z,98245.50
2023-03-16T12:16:01.776Z,98234.78
2023-03-16T12:19:55.778Z,98243.78
2023-03-16T12:23:37.577Z,98229.44
2023-03-16T12:27:00.109Z,98229.25
2023-03-16T12:31:14.171Z,98222.44
2023-03-16T12:35:17.578Z,98208.81
2023-03-16T12:38:49.777Z,98205.97
2023-03-16T12:42:48.766Z,98187.13
2023-03-16T12:46:41.671Z,98182.06
2023-03-16T12:50:11.233Z,98176.91
2023-03-16T12:53:55.084Z,98175.06
2023-03-16T12:57:18.518Z,98171.88
2023-03-16T13:00:42.614Z,98163.53
2023-03-16T13:04:31.019Z,98152.22
2023-03-16T13:08:14.547Z,98161.22
2023-03-16T13:11:50.205Z,98157.72
2023-03-16T13:15:31.510Z,98158.84
2023-03-16T13:18:54.775Z,98152.16
2023-03-16T13:22:22.668Z,98148.72
2023-03-16T13:26:05.589Z,98138.50
2023-03-16T13:29:30.930Z,98139.34
2023-03-16T13:32:56.294Z,98132.66
2023-03-16T13:36:27.050Z,98128.63
2023-03-16T13:40:01.658Z,98127.47
2023-03-16T13:43:33.157Z,98126.38
2023-03-16T13:47:07.310Z,98122.31
2023-03-16T13:50:36.257Z,98111.38
2023-03-16T13:54:32.750Z,98123.56
2023-03-16T13:58:01.715Z,98120.56
2023-03-16T14:01:32.645Z,98102.50
2023-03-16T14:04:55.712Z,98097.47
2023-03-16T14:08:24.994Z,98100.81
2023-03-16T14:11:48.613Z,98088.47
2023-03-16T14:15:15.542Z,98077.06
2023-03-16T14:18:46.111Z,98082.66
2023-03-16T14:22:15.234Z,98077.81
2023-03-16T14:25:37.109Z,98062.50
2023-03-16T14:29:28.269Z,98062.34
2023-03-16T14:33:01.330Z,98064.69
2023-03-16T14:36:38.840Z,98068.38
2023-03-16T14:40:20.748Z,98068.38
2023-03-16T14:44:00.547Z,98070.75
2023-03-16T14:47:30.820Z,98062.41
2023-03-16T14:51:00.166Z,98056.75
2023-03-16T14:54:22.576Z,98067.63
2023-03-16T14:57:49.267Z,98060.44
2023-03-16T15:01:18.104Z,98050.78
2023-03-16T15:04:41.958Z,98043.59
2023-03-16T15:08:10.668Z,98044.47
2023-03-16T15:11:32.498Z,98050.28
2023-03-16T15:15:14.823Z,98055.13
2023-03-16T15:18:40.927Z,98050.44
2023-03-16T15:22:28.976Z,98050.63
2023-03-16T15:26:15.950Z,98050.63
2023-03-16T15:29:38.104Z,98034.00
2023-03-16T15:32:59.935Z,98032.63
2023-03-16T15:36:24.326Z,98034.13
2023-03-16T15:39:47.293Z,98024.19
2023-03-16T15:43:22.704Z,98030.72
2023-03-16T15:46:55.139Z,98036.75
2023-03-16T15:50:24.310Z,98036.13
2023-03-16T15:53:54.649Z,98031.09
2023-03-16T15:57:17.729Z,98025.78
2023-03-16T16:00:41.830Z,98018.94
2023-03-16T16:04:04.195Z,98005.41
2023-03-16T16:07:38.038Z,98014.72
2023-03-16T16:11:00.024Z,98013.72
2023-03-16T16:14:26.576Z,98017.22
2023-03-16T16:18:13.333Z,98005.75
2023-03-16T16:21:43.694Z,98013.09
2023-03-16T16:25:12.107Z,98013.59
2023-03-16T16:28:35.198Z,98008.91
2023-03-16T16:32:26.327Z,98001.34
2023-03-16T16:35:48.444Z,98007.94
2023-03-16T16:39:15.589Z,98002.22
2023-03-16T16:42:41.398Z,97999.34
2023-03-16T16:46:13.980Z,97999.44
2023-03-16T16:49:42.821Z,97994.28
2023-03-16T16:53:20.544Z,97992.44
2023-03-16T16:56:44.071Z,97994.44
2023-03-16T17:00:22.977Z,98002.88
2023-03-16T17:03:48.878Z,97995.38
2023-03-16T17:07:16.580Z,97998.06
2023-03-16T17:10:41.519Z,98000.19
2023-03-16T17:14:07.700Z,97987.75
2023-03-16T17:17:29.621Z,97992.91
2023-03-16T17:20:52.852Z,97986.81
2023-03-16T17:24:29.554Z,97989.97
2023-03-16T17:27:55.834Z,97995.59
2023-03-16T17:31:24.378Z,97990.19
2023-03-16T17:34:46.351Z,97994.75
2023-03-16T17:38:23.373Z,97998.34
2023-03-16T17:41:54.538Z,97986.84
2023-03-16T17:45:26.030Z,97985.03
2023-03-16T17:48:50.868Z,97982.91
2023-03-16T17:52:23.980Z,97986.31
2023-03-16T17:55:47.054Z,97987.34
2023-03-16T17:59:20.254Z,97978.19
2023-03-16T18:02:57.110Z,97987.59
2023-03-16T18:06:26.160Z,97991.59
2023-03-16T18:09:48.258Z,98001.84
2023-03-16T18:13:39.373Z,97986.75
2023-03-16T18:17:33.647Z,97986.63
2023-03-16T18:21:00.438Z,97983.97
2023-03-16T18:24:28.041Z,97975.56
2023-03-16T18:27:51.251Z,97976.53
2023-03-16T18:31:25.624Z,97972.66
2023-03-16T18:35:07.058Z,97979.56
2023-03-16T18:38:33.792Z,97989.47
2023-03-16T18:41:57.785Z,97989.41
2023-03-16T18:45:21.630Z,97989.84
2023-03-16T18:48:44.543Z,97983.84
2023-03-16T18:52:23.663Z,97991.69
2023-03-16T18:55:57.682Z,97985.16
2023-03-16T18:59:27.856Z,97979.84
2023-03-16T19:02:59.482Z,97988.81
2023-03-16T19:06:37.206Z,97985.75
2023-03-16T19:10:32.237Z,97989.13
2023-03-16T19:13:55.076Z,97976.72
2023-03-16T19:17:17.915Z,97977.41
2023-03-16T19:20:43.669Z,97978.28
2023-03-16T19:24:07.105Z,97984.94
2023-03-16T19:27:38.256Z,97984.25
2023-03-16T19:31:32.523Z,97982.00
2023-03-16T19:34:54.628Z,97975.03
2023-03-16T19:38:18.662Z,97970.16
2023-03-16T19:41:42.327Z,97967.66
2023-03-16T19:45:05.905Z,97965.13
2023-03-16T19:48:44.469Z,97971.00
2023-03-16T19:52:11.253Z,97967.34
2023-03-16T19:55:33.317Z,97976.00
2023-03-16T19:59:01.218Z,97979.34
2023-03-16T20:02:36.878Z,97976.41
2023-03-16T20:06:19.075Z,97972.38
2023-03-16T20:09:43.634Z,97965.97
2023-03-16T20:13:11.712Z,97948.13
2023-03-16T20:16:37.010Z,97947.00
2023-03-16T20:19:58.953Z,97948.13
2023-03-16T20:23:36.217Z,97946.88
2023-03-16T20:26:58.184Z,97941.44
2023-03-16T20:30:20.583Z,97938.63
2023-03-16T20:33:43.433Z,97933.31
2023-03-16T20:37:23.758Z,97933.06
2023-03-16T20:40:57.627Z,97916.59
2023-03-16T20:44:23.437Z,97918.69
2023-03-16T20:47:47.732Z,97918.69
2023-03-16T20:51:15.337Z,97912.28
2023-03-16T20:54:37.578Z,97911.03
2023-03-16T20:58:24.470Z,97919.66
2023-03-16T21:01:47.399Z,97917.56
2023-03-16T21:05:14.053Z,97921.63
2023-03-16T21:08:41.161Z,97905.72
2023-03-16T21:12:07.255Z,97904.28
2023-03-16T21:15:34.063Z,97906.78
2023-03-16T21:18:56.840Z,97897.59
2023-03-16T21:22:29.911Z,97898.56
2023-03-16T21:26:00.607Z,97889.19
2023-03-16T21:29:23.684Z,97902.72
2023-03-16T21:33:01.827Z,97905.09
2023-03-16T21:36:28.481Z,97895.63
2023-03-16T21:39:54.516Z,97893.91
2023-03-16T21:43:16.676Z,97882.59
2023-03-16T21:46:38.881Z,97879.53
2023-03-16T21:50:05.803Z,97869.94
2023-03-16T21:53:33.353Z,97858.38
2023-03-16T21:57:00.199Z,97861.47
2023-03-16T22:00:26.877Z,97854.91
2023-03-16T22:03:53.264Z,97857.72
2023-03-16T22:07:15.917Z,97857.44
2023-03-16T22:10:37.786Z,97849.09
2023-03-16T22:14:00.183Z,97852.56
2023-03-16T22:17:22.675Z,97855.22
2023-03-16T22:20:44.502Z,97855.63
2023-03-16T22:24:20.902Z,97855.06
2023-03-16T22:27:42.708Z,97854.06
2023-03-16T22:31:05.337Z,97857.28
2023-03-16T22:34:50.948Z,97851.28
2023-03-16T22:38:15.265Z,97842.94
2023-03-16T22:41:45.355Z,97839.16
2023-03-16T22:45:38.777Z,97821.34
2023-03-16T22:49:00.872Z,97832.91
2023-03-16T22:52:30.826Z,97830.94
2023-03-16T22:55:56.191Z,97833.47
2023-03-16T22:59:24.505Z,97819.53
2023-03-16T23:02:46.336Z,97811.16
2023-03-16T23:06:23.810Z,97809.22
2023-03-16T23:09:46.631Z,97795.00
2023-03-16T23:13:20.069Z,97799.19
2023-03-16T23:16:42.544Z,97807.56
2023-03-16T23:20:30.637Z,97810.19
2023-03-16T23:24:03.000Z,97792.50
2023-03-16T23:27:25.609Z,97798.34
2023-03-16T23:30:47.806Z,97801.69
2023-03-16T23:34:22.530Z,97801.97
2023-03-16T23:37:46.783Z,97794.84
2023-03-16T23:41:12.278Z,97791.66
2023-03-16T23:44:34.496Z,97785.53
2023-03-16T23:48:04.893Z,97784.69
2023-03-16T23:51:34.554Z,97789.31
2023-03-16T23:54:59.069Z,97795.13
2023-03-16T23:58:21.242Z,97795.84
